
Distance (Route):
Temperature : 21.9°C
Humidity : 60.8%
Pressure : 0hPa| Receiver | Frames | First received | Last received |
|---|---|---|---|
| LZ4TU-5 | 363 | 2026-09-02 05:19:03 | 2026-09-02 06:52:08 |
| Receiver | Date | Latitude | Longitude | Direction | Speed | Altitude | Climb | Temperature | Humidity | Pressure | Voltage | Killtimer | Uptime | BKT | XDATA |
|---|---|---|---|---|---|---|---|---|---|---|---|---|---|---|---|
| LZ4TU-5 | 2026-09-02 06:52:08 | 44.23762 | 23.80210 | 253° | 18km/h | 311m | -5.8m/s | 21.9°C | 60.8% | 0hPa | 0V | 00:00:00 | 00:00:00 | 00:00:00 | |
| LZ4TU-5 | 2026-09-02 06:52:01 | 44.23775 | 23.80237 | 191° | 13km/h | 344m | -4.5m/s | 21.5°C | 61.8% | 0hPa | 0V | 00:00:00 | 00:00:00 | 00:00:00 | |
| LZ4TU-5 | 2026-09-02 06:51:55 | 44.23788 | 23.80253 | 170° | 5km/h | 374m | -4.9m/s | 21.2°C | 62.6% | 0hPa | 0V | 00:00:00 | 00:00:00 | 00:00:00 | |
| LZ4TU-5 | 2026-09-02 06:51:49 | 44.23794 | 23.80265 | 0° | 0km/h | 403m | -5.6m/s | 21.0°C | 63.3% | 0hPa | 0V | 00:00:00 | 00:00:00 | 00:00:00 | |
| LZ4TU-5 | 2026-09-02 06:51:43 | 44.23798 | 23.80284 | 297° | 9km/h | 429m | -4.8m/s | 20.8°C | 63.5% | 0hPa | 0V | 00:00:00 | 00:00:00 | 00:00:00 | |
| LZ4TU-5 | 2026-09-02 06:51:39 | 44.23804 | 23.80300 | 230° | 20km/h | 447m | -5.5m/s | 20.5°C | 64.7% | 0hPa | 0V | 00:00:00 | 00:00:00 | 00:00:00 | |
| LZ4TU-5 | 2026-09-02 06:51:35 | 44.23814 | 23.80309 | 107° | 4km/h | 465m | -4.3m/s | 20.5°C | 64.9% | 0hPa | 0V | 00:00:00 | 00:00:00 | 00:00:00 | |
| LZ4TU-5 | 2026-09-02 06:51:30 | 44.23819 | 23.80317 | 116° | 7km/h | 486m | -5.8m/s | 20.1°C | 65.6% | 0hPa | 0V | 00:00:00 | 00:00:00 | 00:00:00 | |
| LZ4TU-5 | 2026-09-02 06:51:25 | 44.23821 | 23.80329 | 188° | 13km/h | 513m | -4.8m/s | 20.0°C | 66.5% | 0hPa | 0V | 00:00:00 | 00:00:00 | 00:00:00 | |
| LZ4TU-5 | 2026-09-02 06:51:21 | 44.23825 | 23.80342 | 282° | 16km/h | 531m | -5.1m/s | 19.8°C | 66.6% | 0hPa | 0V | 00:00:00 | 00:00:00 | 00:00:00 | |
| LZ4TU-5 | 2026-09-02 06:51:16 | 44.23835 | 23.80361 | 306° | 7km/h | 553m | -5.3m/s | 19.5°C | 67.4% | 0hPa | 0V | 00:00:00 | 00:00:00 | 00:00:00 | |
| LZ4TU-5 | 2026-09-02 06:51:11 | 44.23846 | 23.80378 | 175° | 13km/h | 574m | -5.1m/s | 19.3°C | 67.7% | 0hPa | 0V | 00:00:00 | 00:00:00 | 00:00:00 | |
| LZ4TU-5 | 2026-09-02 06:51:07 | 44.23853 | 23.80386 | 238° | 16km/h | 591m | -4.4m/s | 19.2°C | 67.9% | 0hPa | 0V | 00:00:00 | 00:00:00 | 00:00:00 | |
| LZ4TU-5 | 2026-09-02 06:51:02 | 44.23858 | 23.80397 | 292° | 13km/h | 611m | -3.8m/s | 19.1°C | 67.5% | 0hPa | 0V | 00:00:00 | 00:00:00 | 00:00:00 | |
| LZ4TU-5 | 2026-09-02 06:50:58 | 44.23861 | 23.80407 | 210° | 13km/h | 628m | -4.0m/s | 19.0°C | 68.1% | 0hPa | 0V | 00:00:00 | 00:00:00 | 00:00:00 | |
| LZ4TU-5 | 2026-09-02 06:50:52 | 44.23864 | 23.80426 | 93° | 4km/h | 649m | -4.7m/s | 18.7°C | 68.0% | 0hPa | 0V | 00:00:00 | 00:00:00 | 00:00:00 | |
| LZ4TU-5 | 2026-09-02 06:50:47 | 44.23867 | 23.80437 | 171° | 11km/h | 667m | -4.0m/s | 18.6°C | 67.1% | 0hPa | 0V | 00:00:00 | 00:00:00 | 00:00:00 | |
| LZ4TU-5 | 2026-09-02 06:50:43 | 44.23868 | 23.80445 | 314° | 18km/h | 684m | -5.2m/s | 18.6°C | 65.7% | 0hPa | 0V | 00:00:00 | 00:00:00 | 00:00:00 | |
| LZ4TU-5 | 2026-09-02 06:50:39 | 44.23870 | 23.80457 | 172° | 16km/h | 695m | -4.5m/s | 18.8°C | 63.2% | 0hPa | 0V | 00:00:00 | 00:00:00 | 00:00:00 | |
| LZ4TU-5 | 2026-09-02 06:50:34 | 44.23875 | 23.80467 | 147° | 11km/h | 708m | -4.0m/s | 18.7°C | 60.7% | 0hPa | 0V | 00:00:00 | 00:00:00 | 00:00:00 | |
| LZ4TU-5 | 2026-09-02 06:50:29 | 44.23876 | 23.80470 | 139° | 9km/h | 728m | -5.3m/s | 19.1°C | 57.2% | 0hPa | 0V | 00:00:00 | 00:00:00 | 00:00:00 | |
| LZ4TU-5 | 2026-09-02 06:50:25 | 44.23877 | 23.80471 | 296° | 13km/h | 744m | -3.5m/s | 19.2°C | 55.4% | 0hPa | 0V | 00:00:00 | 00:00:00 | 00:00:00 | |
| LZ4TU-5 | 2026-09-02 06:50:20 | 44.23879 | 23.80473 | 5° | 16km/h | 761m | -5.0m/s | 19.4°C | 53.4% | 0hPa | 0V | 00:00:00 | 00:00:00 | 00:00:00 | |
| LZ4TU-5 | 2026-09-02 06:50:15 | 44.23881 | 23.80473 | 325° | 9km/h | 778m | -3.8m/s | 19.6°C | 52.4% | 0hPa | 0V | 00:00:00 | 00:00:00 | 00:00:00 | |
| LZ4TU-5 | 2026-09-02 06:50:11 | 44.23886 | 23.80475 | 143° | 13km/h | 790m | -4.1m/s | 19.7°C | 52.1% | 0hPa | 0V | 00:00:00 | 00:00:00 | 00:00:00 | |
| LZ4TU-5 | 2026-09-02 06:50:06 | 44.23892 | 23.80480 | 128° | 15km/h | 807m | -6.4m/s | 20.0°C | 50.7% | 0hPa | 0V | 00:00:00 | 00:00:00 | 00:00:00 | |
| LZ4TU-5 | 2026-09-02 06:50:02 | 44.23894 | 23.80481 | 251° | 13km/h | 829m | -5.8m/s | 20.1°C | 50.1% | 0hPa | 0V | 00:00:00 | 00:00:00 | 00:00:00 | |
| LZ4TU-5 | 2026-09-02 06:49:57 | 44.23901 | 23.80483 | 224° | 15km/h | 855m | -5.8m/s | 20.1°C | 49.8% | 0hPa | 0V | 00:00:00 | 00:00:00 | 00:00:00 | |
| LZ4TU-5 | 2026-09-02 06:49:52 | 44.23911 | 23.80484 | 219° | 22km/h | 878m | -3.8m/s | 20.0°C | 49.3% | 0hPa | 0V | 00:00:00 | 00:00:00 | 00:00:00 | |
| LZ4TU-5 | 2026-09-02 06:49:47 | 44.23926 | 23.80487 | 202° | 24km/h | 897m | -4.8m/s | 20.1°C | 49.8% | 0hPa | 0V | 00:00:00 | 00:00:00 | 00:00:00 | |
| LZ4TU-5 | 2026-09-02 06:49:42 | 44.23939 | 23.80489 | 180° | 20km/h | 918m | -4.3m/s | 20.2°C | 50.8% | 0hPa | 0V | 00:00:00 | 00:00:00 | 00:00:00 | |
| LZ4TU-5 | 2026-09-02 06:49:37 | 44.23953 | 23.80492 | 174° | 20km/h | 937m | -4.6m/s | 20.0°C | 50.8% | 0hPa | 0V | 00:00:00 | 00:00:00 | 00:00:00 | |
| LZ4TU-5 | 2026-09-02 06:49:33 | 44.23961 | 23.80492 | 299° | 5km/h | 953m | -5.9m/s | 20.0°C | 51.5% | 0hPa | 0V | 00:00:00 | 00:00:00 | 00:00:00 | |
| LZ4TU-5 | 2026-09-02 06:49:27 | 44.23977 | 23.80498 | 197° | 26km/h | 974m | -4.4m/s | 19.8°C | 52.0% | 0hPa | 0V | 00:00:00 | 00:00:00 | 00:00:00 | |
| LZ4TU-5 | 2026-09-02 06:49:23 | 44.23991 | 23.80501 | 206° | 24km/h | 996m | -3.9m/s | 19.8°C | 51.9% | 0hPa | 0V | 00:00:00 | 00:00:00 | 00:00:00 | |
| LZ4TU-5 | 2026-09-02 06:49:21 | 44.24010 | 23.80504 | 151° | 7km/h | 1012m | -4.6m/s | 19.8°C | 52.4% | 0hPa | 0V | 00:00:00 | 00:00:00 | 00:00:00 | |
| LZ4TU-5 | 2026-09-02 06:49:17 | 44.24025 | 23.80512 | 192° | 27km/h | 1029m | -4.0m/s | 19.7°C | 53.6% | 0hPa | 0V | 00:00:00 | 00:00:00 | 00:00:00 | |
| LZ4TU-5 | 2026-09-02 06:49:09 | 44.24045 | 23.80519 | 196° | 27km/h | 1048m | -4.6m/s | 19.6°C | 54.4% | 0hPa | 0V | 00:00:00 | 00:00:00 | 00:00:00 | |
| LZ4TU-5 | 2026-09-02 06:49:05 | 44.24068 | 23.80520 | 193° | 27km/h | 1066m | -4.2m/s | 19.7°C | 56.4% | 0hPa | 0V | 00:00:00 | 00:00:00 | 00:00:00 | |
| LZ4TU-5 | 2026-09-02 06:49:00 | 44.24082 | 23.80519 | 40° | 7km/h | 1082m | -7.4m/s | 19.6°C | 58.0% | 0hPa | 0V | 00:00:00 | 00:00:00 | 00:00:00 | |
| LZ4TU-5 | 2026-09-02 06:48:54 | 44.24100 | 23.80514 | 193° | 24km/h | 1108m | -4.2m/s | 19.5°C | 58.9% | 0hPa | 0V | 00:00:00 | 00:00:00 | 00:00:00 | |
| LZ4TU-5 | 2026-09-02 06:48:49 | 44.24118 | 23.80509 | 187° | 22km/h | 1131m | -4.3m/s | 19.4°C | 58.6% | 0hPa | 0V | 00:00:00 | 00:00:00 | 00:00:00 | |
| LZ4TU-5 | 2026-09-02 06:48:45 | 44.24130 | 23.80500 | 84° | 9km/h | 1148m | -5.2m/s | 19.5°C | 56.8% | 0hPa | 0V | 00:00:00 | 00:00:00 | 00:00:00 | |
| LZ4TU-5 | 2026-09-02 06:48:40 | 44.24144 | 23.80490 | 86° | 15km/h | 1172m | -5.9m/s | 19.3°C | 57.4% | 0hPa | 0V | 00:00:00 | 00:00:00 | 00:00:00 | |
| LZ4TU-5 | 2026-09-02 06:48:35 | 44.24157 | 23.80477 | 106° | 13km/h | 1196m | -4.3m/s | 19.3°C | 54.1% | 0hPa | 0V | 00:00:00 | 00:00:00 | 00:00:00 | |
| LZ4TU-5 | 2026-09-02 06:48:32 | 44.24168 | 23.80469 | 177° | 27km/h | 1213m | -2.5m/s | 19.3°C | 53.9% | 0hPa | 0V | 00:00:00 | 00:00:00 | 00:00:00 | |
| LZ4TU-5 | 2026-09-02 06:48:27 | 44.24188 | 23.80466 | 173° | 27km/h | 1229m | -3.7m/s | 19.1°C | 54.2% | 0hPa | 0V | 00:00:00 | 00:00:00 | 00:00:00 | |
| LZ4TU-5 | 2026-09-02 06:47:59 | 44.24283 | 23.80416 | 190° | 22km/h | 1326m | -4.7m/s | 18.2°C | 56.2% | 0hPa | 0V | 00:00:00 | 00:00:00 | 00:00:00 | |
| LZ4TU-5 | 2026-09-02 06:47:55 | 44.24295 | 23.80413 | 0° | 0km/h | 1343m | -4.1m/s | 18.0°C | 56.1% | 0hPa | 0V | 00:00:00 | 00:00:00 | 00:00:00 | |
| LZ4TU-5 | 2026-09-02 06:47:51 | 44.24307 | 23.80414 | 149° | 20km/h | 1361m | -5.1m/s | 17.9°C | 56.8% | 0hPa | 0V | 00:00:00 | 00:00:00 | 00:00:00 | |
| LZ4TU-5 | 2026-09-02 06:47:46 | 44.24320 | 23.80413 | 145° | 20km/h | 1380m | -5.9m/s | 17.7°C | 57.1% | 0hPa | 0V | 00:00:00 | 00:00:00 | 00:00:00 | |
| LZ4TU-5 | 2026-09-02 06:47:41 | 44.24336 | 23.80409 | 155° | 22km/h | 1403m | -5.5m/s | 17.5°C | 57.2% | 0hPa | 0V | 00:00:00 | 00:00:00 | 00:00:00 | |
| LZ4TU-5 | 2026-09-02 06:47:36 | 44.24355 | 23.80405 | 183° | 31km/h | 1429m | -5.3m/s | 17.3°C | 57.0% | 0hPa | 0V | 00:00:00 | 00:00:00 | 00:00:00 | |
| LZ4TU-5 | 2026-09-02 06:47:32 | 44.24373 | 23.80400 | 174° | 4km/h | 1445m | -5.1m/s | 17.2°C | 57.1% | 0hPa | 0V | 00:00:00 | 00:00:00 | 00:00:00 | |
| LZ4TU-5 | 2026-09-02 06:47:27 | 44.24390 | 23.80390 | 217° | 9km/h | 1465m | -4.0m/s | 17.0°C | 57.5% | 0hPa | 0V | 00:00:00 | 00:00:00 | 00:00:00 | |
| LZ4TU-5 | 2026-09-02 06:47:23 | 44.24403 | 23.80384 | 124° | 18km/h | 1478m | -4.1m/s | 16.8°C | 58.2% | 0hPa | 0V | 00:00:00 | 00:00:00 | 00:00:00 | |
| LZ4TU-5 | 2026-09-02 06:47:18 | 44.24418 | 23.80375 | 123° | 18km/h | 1495m | -4.5m/s | 16.7°C | 57.9% | 0hPa | 0V | 00:00:00 | 00:00:00 | 00:00:00 | |
| LZ4TU-5 | 2026-09-02 06:47:13 | 44.24434 | 23.80375 | 163° | 18km/h | 1512m | -6.8m/s | 16.5°C | 58.6% | 0hPa | 0V | 00:00:00 | 00:00:00 | 00:00:00 | |
| LZ4TU-5 | 2026-09-02 06:47:09 | 44.24442 | 23.80371 | 197° | 18km/h | 1531m | -5.3m/s | 16.4°C | 58.5% | 0hPa | 0V | 00:00:00 | 00:00:00 | 00:00:00 | |
| LZ4TU-5 | 2026-09-02 06:47:05 | 44.24455 | 23.80364 | 68° | 7km/h | 1550m | -5.8m/s | 16.2°C | 58.4% | 0hPa | 0V | 00:00:00 | 00:00:00 | 00:00:00 | |
| LZ4TU-5 | 2026-09-02 06:47:00 | 44.24470 | 23.80358 | 74° | 4km/h | 1572m | -5.1m/s | 16.0°C | 58.1% | 0hPa | 0V | 00:00:00 | 00:00:00 | 00:00:00 | |
| LZ4TU-5 | 2026-09-02 06:46:56 | 44.24485 | 23.80362 | 139° | 22km/h | 1585m | -7.7m/s | 15.8°C | 58.3% | 0hPa | 0V | 00:00:00 | 00:00:00 | 00:00:00 | |
| LZ4TU-5 | 2026-09-02 06:46:51 | 44.24502 | 23.80356 | 156° | 27km/h | 1606m | -4.1m/s | 15.7°C | 57.7% | 0hPa | 0V | 00:00:00 | 00:00:00 | 00:00:00 | |
| LZ4TU-5 | 2026-09-02 06:46:47 | 44.24520 | 23.80349 | 186° | 9km/h | 1624m | -6.5m/s | 15.8°C | 53.4% | 0hPa | 0V | 00:00:00 | 00:00:00 | 00:00:00 | |
| LZ4TU-5 | 2026-09-02 06:46:38 | 44.24557 | 23.80327 | 139° | 26km/h | 1663m | -5.0m/s | 15.7°C | 50.2% | 0hPa | 0V | 00:00:00 | 00:00:00 | 00:00:00 | |
| LZ4TU-5 | 2026-09-02 06:46:33 | 44.24572 | 23.80316 | 118° | 18km/h | 1679m | -4.3m/s | 15.7°C | 46.6% | 0hPa | 0V | 00:00:00 | 00:00:00 | 00:00:00 | |
| LZ4TU-5 | 2026-09-02 06:46:28 | 44.24592 | 23.80309 | 135° | 26km/h | 1698m | -6.2m/s | 15.6°C | 44.7% | 0hPa | 0V | 00:00:00 | 00:00:00 | 00:00:00 | |
| LZ4TU-5 | 2026-09-02 06:46:24 | 44.24607 | 23.80301 | 185° | 27km/h | 1714m | -6.3m/s | 15.5°C | 44.2% | 0hPa | 0V | 00:00:00 | 00:00:00 | 00:00:00 | |
| LZ4TU-5 | 2026-09-02 06:46:19 | 44.24624 | 23.80288 | 203° | 16km/h | 1739m | -4.1m/s | 15.4°C | 42.5% | 0hPa | 0V | 00:00:00 | 00:00:00 | 00:00:00 | |
| LZ4TU-5 | 2026-09-02 06:46:15 | 44.24639 | 23.80275 | 90° | 11km/h | 1755m | -7.2m/s | 15.3°C | 42.2% | 0hPa | 0V | 00:00:00 | 00:00:00 | 00:00:00 | |
| LZ4TU-5 | 2026-09-02 06:46:11 | 44.24653 | 23.80258 | 128° | 31km/h | 1775m | -3.9m/s | 15.2°C | 41.6% | 0hPa | 0V | 00:00:00 | 00:00:00 | 00:00:00 | |
| LZ4TU-5 | 2026-09-02 06:46:06 | 44.24670 | 23.80228 | 121° | 33km/h | 1794m | -4.1m/s | 15.2°C | 40.8% | 0hPa | 0V | 00:00:00 | 00:00:00 | 00:00:00 | |
| LZ4TU-5 | 2026-09-02 06:46:02 | 44.24680 | 23.80205 | 142° | 15km/h | 1806m | -6.0m/s | 15.1°C | 40.4% | 0hPa | 0V | 00:00:00 | 00:00:00 | 00:00:00 | |
| LZ4TU-5 | 2026-09-02 06:45:57 | 44.24694 | 23.80175 | 147° | 16km/h | 1830m | -5.0m/s | 15.0°C | 40.0% | 0hPa | 0V | 00:00:00 | 00:00:00 | 00:00:00 | |
| LZ4TU-5 | 2026-09-02 06:45:53 | 44.24702 | 23.80149 | 73° | 24km/h | 1849m | -5.6m/s | 14.9°C | 40.5% | 0hPa | 0V | 00:00:00 | 00:00:00 | 00:00:00 | |
| LZ4TU-5 | 2026-09-02 06:45:48 | 44.24713 | 23.80125 | 62° | 18km/h | 1870m | -6.7m/s | 14.7°C | 40.9% | 0hPa | 0V | 00:00:00 | 00:00:00 | 00:00:00 | |
| LZ4TU-5 | 2026-09-02 06:45:43 | 44.24723 | 23.80097 | 63° | 16km/h | 1899m | -5.5m/s | 14.6°C | 41.2% | 0hPa | 0V | 00:00:00 | 00:00:00 | 00:00:00 | |
| LZ4TU-5 | 2026-09-02 06:45:37 | 44.24738 | 23.80067 | 139° | 29km/h | 1921m | -3.9m/s | 14.4°C | 41.7% | 0hPa | 0V | 00:00:00 | 00:00:00 | 00:00:00 | |
| LZ4TU-5 | 2026-09-02 06:45:31 | 44.24756 | 23.80037 | 77° | 15km/h | 1948m | -4.8m/s | 14.1°C | 41.9% | 0hPa | 0V | 00:00:00 | 00:00:00 | 00:00:00 | |
| LZ4TU-5 | 2026-09-02 06:45:26 | 44.24769 | 23.80005 | 70° | 16km/h | 1969m | -4.1m/s | 14.0°C | 42.4% | 0hPa | 0V | 00:00:00 | 00:00:00 | 00:00:00 | |
| LZ4TU-5 | 2026-09-02 06:45:22 | 44.24779 | 23.80000 | 116° | 29km/h | 1983m | -4.1m/s | 13.9°C | 42.9% | 0hPa | 0V | 00:00:00 | 00:00:00 | 00:00:00 | |
| LZ4TU-5 | 2026-09-02 06:45:17 | 44.24787 | 23.79958 | 101° | 26km/h | 2003m | -4.5m/s | 13.7°C | 43.2% | 0hPa | 0V | 00:00:00 | 00:00:00 | 00:00:00 | |
| LZ4TU-5 | 2026-09-02 06:45:13 | 44.24790 | 23.79944 | 212° | 11km/h | 2019m | -4.4m/s | 13.5°C | 43.8% | 0hPa | 0V | 00:00:00 | 00:00:00 | 00:00:00 | |
| LZ4TU-5 | 2026-09-02 06:45:08 | 44.24802 | 23.79928 | 148° | 27km/h | 2038m | -3.6m/s | 13.4°C | 44.1% | 0hPa | 0V | 00:00:00 | 00:00:00 | 00:00:00 | |
| LZ4TU-5 | 2026-09-02 06:45:04 | 44.24817 | 23.79914 | 191° | 7km/h | 2052m | -4.2m/s | 13.2°C | 44.3% | 0hPa | 0V | 00:00:00 | 00:00:00 | 00:00:00 | |
| LZ4TU-5 | 2026-09-02 06:45:00 | 44.24830 | 23.79899 | 100° | 22km/h | 2064m | -3.7m/s | 13.1°C | 44.4% | 0hPa | 0V | 00:00:00 | 00:00:00 | 00:00:00 | |
| LZ4TU-5 | 2026-09-02 06:44:55 | 44.24842 | 23.79880 | 89° | 18km/h | 2081m | -3.9m/s | 12.9°C | 44.8% | 0hPa | 0V | 00:00:00 | 00:00:00 | 00:00:00 | |
| LZ4TU-5 | 2026-09-02 06:44:50 | 44.24855 | 23.79859 | 105° | 16km/h | 2099m | -5.3m/s | 12.7°C | 45.1% | 0hPa | 0V | 00:00:00 | 00:00:00 | 00:00:00 | |
| LZ4TU-5 | 2026-09-02 06:44:45 | 44.24864 | 23.79838 | 78° | 15km/h | 2118m | -4.3m/s | 12.5°C | 45.6% | 0hPa | 0V | 00:00:00 | 00:00:00 | 00:00:00 | |
| LZ4TU-5 | 2026-09-02 06:44:41 | 44.24873 | 23.79827 | 144° | 22km/h | 2135m | -4.6m/s | 12.4°C | 45.7% | 0hPa | 0V | 00:00:00 | 00:00:00 | 00:00:00 | |
| LZ4TU-5 | 2026-09-02 06:44:36 | 44.24881 | 23.79809 | 145° | 22km/h | 2153m | -4.0m/s | 12.2°C | 46.0% | 0hPa | 0V | 00:00:00 | 00:00:00 | 00:00:00 | |
| LZ4TU-5 | 2026-09-02 06:44:31 | 44.24892 | 23.79793 | 125° | 24km/h | 2172m | -6.2m/s | 12.0°C | 46.4% | 0hPa | 0V | 00:00:00 | 00:00:00 | 00:00:00 | |
| LZ4TU-5 | 2026-09-02 06:44:26 | 44.24898 | 23.79779 | 123° | 22km/h | 2195m | -7.0m/s | 11.8°C | 46.8% | 0hPa | 0V | 00:00:00 | 00:00:00 | 00:00:00 | |
| LZ4TU-5 | 2026-09-02 06:44:21 | 44.24907 | 23.79767 | 132° | 22km/h | 2221m | -6.4m/s | 11.6°C | 46.9% | 0hPa | 0V | 00:00:00 | 00:00:00 | 00:00:00 | |
| LZ4TU-5 | 2026-09-02 06:44:16 | 44.24920 | 23.79754 | 146° | 26km/h | 2247m | -4.3m/s | 11.5°C | 47.1% | 0hPa | 0V | 00:00:00 | 00:00:00 | 00:00:00 | |
| LZ4TU-5 | 2026-09-02 06:44:12 | 44.24930 | 23.79740 | 76° | 7km/h | 2265m | -5.1m/s | 11.4°C | 46.9% | 0hPa | 0V | 00:00:00 | 00:00:00 | 00:00:00 | |
| LZ4TU-5 | 2026-09-02 06:44:07 | 44.24941 | 23.79721 | 119° | 2km/h | 2284m | -4.9m/s | 11.4°C | 46.0% | 0hPa | 0V | 00:00:00 | 00:00:00 | 00:00:00 | |
| LZ4TU-5 | 2026-09-02 06:44:02 | 44.24946 | 23.79699 | 179° | 11km/h | 2308m | -3.8m/s | 11.2°C | 46.2% | 0hPa | 0V | 00:00:00 | 00:00:00 | 00:00:00 | |
| LZ4TU-5 | 2026-09-02 06:43:58 | 44.24949 | 23.79683 | 31° | 11km/h | 2323m | -4.0m/s | 11.0°C | 46.5% | 0hPa | 0V | 00:00:00 | 00:00:00 | 00:00:00 | |
| LZ4TU-5 | 2026-09-02 06:43:53 | 44.24950 | 23.79666 | 18° | 7km/h | 2342m | -4.0m/s | 10.9°C | 46.5% | 0hPa | 0V | 00:00:00 | 00:00:00 | 00:00:00 | |
| LZ4TU-5 | 2026-09-02 06:43:48 | 44.24954 | 23.79649 | 0° | 0km/h | 2360m | -4.1m/s | 10.8°C | 47.1% | 0hPa | 0V | 00:00:00 | 00:00:00 | 00:00:00 | |
| LZ4TU-5 | 2026-09-02 06:43:44 | 44.24961 | 23.79636 | 138° | 26km/h | 2373m | -1.6m/s | 10.6°C | 47.3% | 0hPa | 0V | 00:00:00 | 00:00:00 | 00:00:00 | |
| LZ4TU-5 | 2026-09-02 06:43:39 | 44.24966 | 23.79612 | 70° | 22km/h | 2390m | -4.0m/s | 10.4°C | 48.2% | 0hPa | 0V | 00:00:00 | 00:00:00 | 00:00:00 | |
| LZ4TU-5 | 2026-09-02 06:43:35 | 44.24966 | 23.79590 | 131° | 24km/h | 2402m | -3.0m/s | 10.2°C | 49.9% | 0hPa | 0V | 00:00:00 | 00:00:00 | 00:00:00 | |
| LZ4TU-5 | 2026-09-02 06:43:30 | 44.24974 | 23.79569 | 112° | 26km/h | 2413m | -3.8m/s | 10.0°C | 51.9% | 0hPa | 0V | 00:00:00 | 00:00:00 | 00:00:00 | |
| LZ4TU-5 | 2026-09-02 06:43:25 | 44.24974 | 23.79538 | 108° | 29km/h | 2429m | -6.9m/s | 9.9°C | 52.6% | 0hPa | 0V | 00:00:00 | 00:00:00 | 00:00:00 | |
| LZ4TU-5 | 2026-09-02 06:43:21 | 44.24971 | 23.79521 | 130° | 11km/h | 2449m | -5.3m/s | 9.8°C | 53.5% | 0hPa | 0V | 00:00:00 | 00:00:00 | 00:00:00 | |
| LZ4TU-5 | 2026-09-02 06:43:16 | 44.24967 | 23.79496 | 241° | 4km/h | 2478m | -4.2m/s | 9.5°C | 54.0% | 0hPa | 0V | 00:00:00 | 00:00:00 | 00:00:00 | |
| LZ4TU-5 | 2026-09-02 06:43:12 | 44.24969 | 23.79482 | 25° | 11km/h | 2492m | -3.9m/s | 9.4°C | 54.4% | 0hPa | 0V | 00:00:00 | 00:00:00 | 00:00:00 | |
| LZ4TU-5 | 2026-09-02 06:43:07 | 44.24969 | 23.79464 | 21° | 7km/h | 2509m | -3.8m/s | 9.2°C | 54.6% | 0hPa | 0V | 00:00:00 | 00:00:00 | 00:00:00 | |
| LZ4TU-5 | 2026-09-02 06:43:03 | 44.24973 | 23.79446 | 85° | 24km/h | 2521m | -3.9m/s | 9.0°C | 55.2% | 0hPa | 0V | 00:00:00 | 00:00:00 | 00:00:00 | |
| LZ4TU-5 | 2026-09-02 06:42:59 | 44.24971 | 23.79426 | 149° | 15km/h | 2541m | -4.1m/s | 8.9°C | 55.6% | 0hPa | 0V | 00:00:00 | 00:00:00 | 00:00:00 | |
| LZ4TU-5 | 2026-09-02 06:42:54 | 44.24974 | 23.79396 | 140° | 16km/h | 2564m | -3.8m/s | 8.7°C | 56.0% | 0hPa | 0V | 00:00:00 | 00:00:00 | 00:00:00 | |
| LZ4TU-5 | 2026-09-02 06:42:49 | 44.24980 | 23.79369 | 130° | 16km/h | 2581m | -3.5m/s | 8.5°C | 56.2% | 0hPa | 0V | 00:00:00 | 00:00:00 | 00:00:00 | |
| LZ4TU-5 | 2026-09-02 06:42:45 | 44.24984 | 23.79346 | 78° | 29km/h | 2592m | -2.5m/s | 8.4°C | 56.8% | 0hPa | 0V | 00:00:00 | 00:00:00 | 00:00:00 | |
| LZ4TU-5 | 2026-09-02 06:42:40 | 44.24986 | 23.79315 | 44° | 13km/h | 2612m | -3.5m/s | 8.2°C | 56.5% | 0hPa | 0V | 00:00:00 | 00:00:00 | 00:00:00 | |
| LZ4TU-5 | 2026-09-02 06:42:35 | 44.24985 | 23.79289 | 45° | 22km/h | 2627m | -4.5m/s | 8.1°C | 51.9% | 0hPa | 0V | 00:00:00 | 00:00:00 | 00:00:00 | |
| LZ4TU-5 | 2026-09-02 06:42:30 | 44.24986 | 23.79260 | 53° | 7km/h | 2645m | -3.6m/s | 8.0°C | 50.5% | 0hPa | 0V | 00:00:00 | 00:00:00 | 00:00:00 | |
| LZ4TU-5 | 2026-09-02 06:42:26 | 44.24990 | 23.79239 | 90° | 27km/h | 2655m | -3.6m/s | 8.0°C | 49.3% | 0hPa | 0V | 00:00:00 | 00:00:00 | 00:00:00 | |
| LZ4TU-5 | 2026-09-02 06:42:21 | 44.24997 | 23.79211 | 89° | 27km/h | 2666m | -3.7m/s | 7.9°C | 48.3% | 0hPa | 0V | 00:00:00 | 00:00:00 | 00:00:00 | |
| LZ4TU-5 | 2026-09-02 06:42:16 | 44.25002 | 23.79173 | 80° | 33km/h | 2677m | -4.9m/s | 7.9°C | 45.8% | 0hPa | 0V | 00:00:00 | 00:00:00 | 00:00:00 | |
| LZ4TU-5 | 2026-09-02 06:42:12 | 44.25006 | 23.79144 | 142° | 27km/h | 2694m | -5.0m/s | 7.9°C | 41.1% | 0hPa | 0V | 00:00:00 | 00:00:00 | 00:00:00 | |
| LZ4TU-5 | 2026-09-02 06:42:07 | 44.25016 | 23.79108 | 109° | 26km/h | 2712m | -5.0m/s | 8.1°C | 34.5% | 0hPa | 0V | 00:00:00 | 00:00:00 | 00:00:00 | |
| LZ4TU-5 | 2026-09-02 06:42:02 | 44.25010 | 23.79082 | 96° | 29km/h | 2736m | -6.2m/s | 8.3°C | 29.3% | 0hPa | 0V | 00:00:00 | 00:00:00 | 00:00:00 | |
| LZ4TU-5 | 2026-09-02 06:41:58 | 44.25000 | 23.79061 | 149° | 11km/h | 2755m | -4.3m/s | 8.3°C | 0% | 0hPa | 0V | 00:00:00 | 00:00:00 | 00:00:00 | |
| LZ4TU-5 | 2026-09-02 06:41:53 | 44.24998 | 23.79043 | 164° | 11km/h | 2768m | -6.1m/s | 8.1°C | 26.8% | 0hPa | 0V | 00:00:00 | 00:00:00 | 00:00:00 | |
| LZ4TU-5 | 2026-09-02 06:41:48 | 44.24996 | 23.79020 | 124° | 9km/h | 2789m | -4.7m/s | 8.0°C | 26.6% | 0hPa | 0V | 00:00:00 | 00:00:00 | 00:00:00 | |
| LZ4TU-5 | 2026-09-02 06:41:43 | 44.24992 | 23.78992 | 155° | 7km/h | 2814m | -7.9m/s | 7.8°C | 26.2% | 0hPa | 0V | 00:00:00 | 00:00:00 | 00:00:00 | |
| LZ4TU-5 | 2026-09-02 06:41:39 | 44.24984 | 23.78969 | 37° | 29km/h | 2835m | -5.9m/s | 7.7°C | 25.1% | 0hPa | 0V | 00:00:00 | 00:00:00 | 00:00:00 | |
| LZ4TU-5 | 2026-09-02 06:41:34 | 44.24973 | 23.78943 | 30° | 33km/h | 2859m | -4.5m/s | 7.5°C | 24.7% | 0hPa | 0V | 00:00:00 | 00:00:00 | 00:00:00 | |
| LZ4TU-5 | 2026-09-02 06:41:30 | 44.24963 | 23.78925 | 78° | 24km/h | 2872m | -3.8m/s | 7.4°C | 24.6% | 0hPa | 0V | 00:00:00 | 00:00:00 | 00:00:00 | |
| LZ4TU-5 | 2026-09-02 06:41:24 | 44.24948 | 23.78906 | 12° | 13km/h | 2896m | -6.3m/s | 7.2°C | 23.6% | 0hPa | 0V | 00:00:00 | 00:00:00 | 00:00:00 | |
| LZ4TU-5 | 2026-09-02 06:41:19 | 44.24940 | 23.78883 | 133° | 5km/h | 2914m | -3.8m/s | 7.1°C | 23.3% | 0hPa | 0V | 00:00:00 | 00:00:00 | 00:00:00 | |
| LZ4TU-5 | 2026-09-02 06:41:15 | 44.24938 | 23.78856 | 47° | 24km/h | 2932m | -4.0m/s | 7.0°C | 22.8% | 0hPa | 0V | 00:00:00 | 00:00:00 | 00:00:00 | |
| LZ4TU-5 | 2026-09-02 06:41:10 | 44.24934 | 23.78827 | 29° | 13km/h | 2948m | -4.2m/s | 7.1°C | 18.0% | 0hPa | 0V | 00:00:00 | 00:00:00 | 00:00:00 | |
| LZ4TU-5 | 2026-09-02 06:41:06 | 44.24932 | 23.78806 | 81° | 27km/h | 2961m | -3.9m/s | 7.1°C | 17.9% | 0hPa | 0V | 00:00:00 | 00:00:00 | 00:00:00 | |
| LZ4TU-5 | 2026-09-02 06:41:01 | 44.24932 | 23.78784 | 88° | 26km/h | 2976m | -3.9m/s | 6.9°C | 17.8% | 0hPa | 0V | 00:00:00 | 00:00:00 | 00:00:00 | |
| LZ4TU-5 | 2026-09-02 06:40:56 | 44.24934 | 23.78756 | 73° | 22km/h | 2990m | -3.8m/s | 6.9°C | 17.6% | 0hPa | 0V | 00:00:00 | 00:00:00 | 00:00:00 | |
| LZ4TU-5 | 2026-09-02 06:40:52 | 44.24940 | 23.78737 | 111° | 29km/h | 3007m | -6.9m/s | 6.8°C | 17.7% | 0hPa | 0V | 00:00:00 | 00:00:00 | 00:00:00 | |
| LZ4TU-5 | 2026-09-02 06:40:47 | 44.24950 | 23.78709 | 124° | 27km/h | 3027m | -3.7m/s | 6.7°C | 17.7% | 0hPa | 0V | 00:00:00 | 00:00:00 | 00:00:00 | |
| LZ4TU-5 | 2026-09-02 06:40:42 | 44.24963 | 23.78681 | 147° | 29km/h | 3046m | -4.3m/s | 6.6°C | 17.8% | 0hPa | 0V | 00:00:00 | 00:00:00 | 00:00:00 | |
| LZ4TU-5 | 2026-09-02 06:40:37 | 44.24979 | 23.78650 | 116° | 31km/h | 3062m | -4.7m/s | 6.5°C | 17.9% | 0hPa | 0V | 00:00:00 | 00:00:00 | 00:00:00 | |
| LZ4TU-5 | 2026-09-02 06:40:33 | 44.24986 | 23.78623 | 116° | 11km/h | 3078m | -5.9m/s | 6.4°C | 17.9% | 0hPa | 0V | 00:00:00 | 00:00:00 | 00:00:00 | |
| LZ4TU-5 | 2026-09-02 06:40:28 | 44.24993 | 23.78590 | 48° | 11km/h | 3104m | -4.7m/s | 6.2°C | 17.3% | 0hPa | 0V | 00:00:00 | 00:00:00 | 00:00:00 | |
| LZ4TU-5 | 2026-09-02 06:40:23 | 44.24994 | 23.78561 | 170° | 11km/h | 3122m | -3.6m/s | 6.0°C | 17.2% | 0hPa | 0V | 00:00:00 | 00:00:00 | 00:00:00 | |
| LZ4TU-5 | 2026-09-02 06:40:18 | 44.25000 | 23.78535 | 154° | 16km/h | 3143m | -5.4m/s | 6.0°C | 17.2% | 0hPa | 0V | 00:00:00 | 00:00:00 | 00:00:00 | |
| LZ4TU-5 | 2026-09-02 06:40:13 | 44.25017 | 23.78506 | 158° | 22km/h | 3161m | -3.9m/s | 5.9°C | 17.2% | 0hPa | 0V | 00:00:00 | 00:00:00 | 00:00:00 | |
| LZ4TU-5 | 2026-09-02 06:40:09 | 44.25030 | 23.78482 | 92° | 20km/h | 3177m | -3.5m/s | 5.6°C | 17.2% | 0hPa | 0V | 00:00:00 | 00:00:00 | 00:00:00 | |
| LZ4TU-5 | 2026-09-02 06:40:04 | 44.25042 | 23.78448 | 72° | 20km/h | 3191m | -3.4m/s | 5.6°C | 17.0% | 0hPa | 0V | 00:00:00 | 00:00:00 | 00:00:00 | |
| LZ4TU-5 | 2026-09-02 06:40:00 | 44.25053 | 23.78425 | 146° | 29km/h | 3203m | -2.7m/s | 5.5°C | 16.8% | 0hPa | 0V | 00:00:00 | 00:00:00 | 00:00:00 | |
| LZ4TU-5 | 2026-09-02 06:39:54 | 44.25065 | 23.78387 | 86° | 9km/h | 3228m | -6.2m/s | 5.4°C | 16.8% | 0hPa | 0V | 00:00:00 | 00:00:00 | 00:00:00 | |
| LZ4TU-5 | 2026-09-02 06:39:50 | 44.25074 | 23.78360 | 105° | 26km/h | 3248m | -6.5m/s | 5.3°C | 0% | 0hPa | 0V | 00:00:00 | 00:00:00 | 00:00:00 | |
| LZ4TU-5 | 2026-09-02 06:39:45 | 44.25084 | 23.78329 | 91° | 20km/h | 3272m | -4.4m/s | 5.1°C | 17.1% | 0hPa | 0V | 00:00:00 | 00:00:00 | 00:00:00 | |
| LZ4TU-5 | 2026-09-02 06:39:40 | 44.25098 | 23.78301 | 90° | 20km/h | 3289m | -4.2m/s | 5.1°C | 16.9% | 0hPa | 0V | 00:00:00 | 00:00:00 | 00:00:00 | |
| LZ4TU-5 | 2026-09-02 06:39:35 | 44.25117 | 23.78268 | 70° | 26km/h | 3305m | -5.7m/s | 4.9°C | 16.4% | 0hPa | 0V | 00:00:00 | 00:00:00 | 00:00:00 | |
| LZ4TU-5 | 2026-09-02 06:39:30 | 44.25130 | 23.78228 | 80° | 16km/h | 3328m | -7.0m/s | 4.8°C | 16.5% | 0hPa | 0V | 00:00:00 | 00:00:00 | 00:00:00 | |
| LZ4TU-5 | 2026-09-02 06:39:25 | 44.25138 | 23.78190 | 144° | 11km/h | 3348m | -3.5m/s | 4.7°C | 16.4% | 0hPa | 0V | 00:00:00 | 00:00:00 | 00:00:00 | |
| LZ4TU-5 | 2026-09-02 06:39:20 | 44.25150 | 23.78156 | 142° | 22km/h | 3363m | -3.9m/s | 4.6°C | 16.6% | 0hPa | 0V | 00:00:00 | 00:00:00 | 00:00:00 | |
| LZ4TU-5 | 2026-09-02 06:39:16 | 44.25156 | 23.78132 | 81° | 9km/h | 3377m | -4.2m/s | 4.3°C | 16.7% | 0hPa | 0V | 00:00:00 | 00:00:00 | 00:00:00 | |
| LZ4TU-5 | 2026-09-02 06:39:11 | 44.25163 | 23.78102 | 136° | 9km/h | 3395m | -4.3m/s | 4.1°C | 16.7% | 0hPa | 0V | 00:00:00 | 00:00:00 | 00:00:00 | |
| LZ4TU-5 | 2026-09-02 06:39:02 | 44.25194 | 23.78041 | 90° | 20km/h | 3429m | -4.7m/s | 3.9°C | 16.7% | 0hPa | 0V | 00:00:00 | 00:00:00 | 00:00:00 | |
| LZ4TU-5 | 2026-09-02 06:38:57 | 44.25208 | 23.78008 | 67° | 29km/h | 3448m | -5.1m/s | 3.7°C | 16.8% | 0hPa | 0V | 00:00:00 | 00:00:00 | 00:00:00 | |
| LZ4TU-5 | 2026-09-02 06:38:53 | 44.25214 | 23.77979 | 106° | 33km/h | 3466m | -4.7m/s | 3.6°C | 16.9% | 0hPa | 0V | 00:00:00 | 00:00:00 | 00:00:00 | |
| LZ4TU-5 | 2026-09-02 06:38:42 | 44.25230 | 23.77910 | 154° | 9km/h | 3508m | -4.2m/s | 3.2°C | 17.3% | 0hPa | 0V | 00:00:00 | 00:00:00 | 00:00:00 | |
| LZ4TU-5 | 2026-09-02 06:38:36 | 44.25247 | 23.77881 | 121° | 40km/h | 3527m | -6.9m/s | 3.0°C | 17.5% | 0hPa | 0V | 00:00:00 | 00:00:00 | 00:00:00 | |
| LZ4TU-5 | 2026-09-02 06:38:31 | 44.25257 | 23.77840 | 113° | 38km/h | 3558m | -5.3m/s | 2.9°C | 17.4% | 0hPa | 0V | 00:00:00 | 00:00:00 | 00:00:00 | |
| LZ4TU-5 | 2026-09-02 06:38:26 | 44.25269 | 23.77799 | 83° | 27km/h | 3573m | -3.9m/s | 2.7°C | 17.2% | 0hPa | 0V | 00:00:00 | 00:00:00 | 00:00:00 | |
| LZ4TU-5 | 2026-09-02 06:38:22 | 44.25276 | 23.77769 | 133° | 33km/h | 3587m | -3.2m/s | 2.5°C | 17.3% | 0hPa | 0V | 00:00:00 | 00:00:00 | 00:00:00 | |
| LZ4TU-5 | 2026-09-02 06:38:17 | 44.25283 | 23.77730 | 114° | 42km/h | 3610m | -6.9m/s | 2.5°C | 17.4% | 0hPa | 0V | 00:00:00 | 00:00:00 | 00:00:00 | |
| LZ4TU-5 | 2026-09-02 06:38:13 | 44.25284 | 23.77696 | 129° | 18km/h | 3633m | -5.0m/s | 2.3°C | 17.4% | 0hPa | 0V | 00:00:00 | 00:00:00 | 00:00:00 | |
| LZ4TU-5 | 2026-09-02 06:38:08 | 44.25287 | 23.77659 | 132° | 20km/h | 3655m | -4.6m/s | 2.2°C | 16.9% | 0hPa | 0V | 00:00:00 | 00:00:00 | 00:00:00 | |
| LZ4TU-5 | 2026-09-02 06:38:04 | 44.25294 | 23.77629 | 78° | 22km/h | 3675m | -4.5m/s | 2.3°C | 16.2% | 0hPa | 0V | 00:00:00 | 00:00:00 | 00:00:00 | |
| LZ4TU-5 | 2026-09-02 06:37:59 | 44.25308 | 23.77586 | 79° | 29km/h | 3693m | -4.1m/s | 2.3°C | 17.2% | 0hPa | 0V | 00:00:00 | 00:00:00 | 00:00:00 | |
| LZ4TU-5 | 2026-09-02 06:37:53 | 44.25318 | 23.77523 | 115° | 37km/h | 3716m | -5.6m/s | 2.2°C | 18.2% | 0hPa | 0V | 00:00:00 | 00:00:00 | 00:00:00 | |
| LZ4TU-5 | 2026-09-02 06:37:49 | 44.25321 | 23.77480 | 65° | 37km/h | 3732m | -1.2m/s | 2.0°C | 18.7% | 0hPa | 0V | 00:00:00 | 00:00:00 | 00:00:00 | |
| LZ4TU-5 | 2026-09-02 06:37:44 | 44.25329 | 23.77433 | 109° | 20km/h | 3753m | -3.6m/s | 1.8°C | 19.8% | 0hPa | 0V | 00:00:00 | 00:00:00 | 00:00:00 | |
| LZ4TU-5 | 2026-09-02 06:37:39 | 44.25337 | 23.77389 | 131° | 26km/h | 3771m | -4.2m/s | 1.6°C | 22.3% | 0hPa | 0V | 00:00:00 | 00:00:00 | 00:00:00 | |
| LZ4TU-5 | 2026-09-02 06:37:35 | 44.25341 | 23.77346 | 69° | 37km/h | 3787m | -5.8m/s | 1.5°C | 22.3% | 0hPa | 0V | 00:00:00 | 00:00:00 | 00:00:00 | |
| LZ4TU-5 | 2026-09-02 06:37:30 | 44.25352 | 23.77295 | 87° | 29km/h | 3809m | -5.2m/s | 1.3°C | 22.5% | 0hPa | 0V | 00:00:00 | 00:00:00 | 00:00:00 | |
| LZ4TU-5 | 2026-09-02 06:37:25 | 44.25367 | 23.77236 | 126° | 26km/h | 3824m | -4.3m/s | 1.1°C | 22.8% | 0hPa | 0V | 00:00:00 | 00:00:00 | 00:00:00 | |
| LZ4TU-5 | 2026-09-02 06:37:20 | 44.25377 | 23.77177 | 124° | 26km/h | 3844m | -6.1m/s | 1.0°C | 22.8% | 0hPa | 0V | 00:00:00 | 00:00:00 | 00:00:00 | |
| LZ4TU-5 | 2026-09-02 06:37:16 | 44.25384 | 23.77133 | 78° | 31km/h | 3861m | -4.5m/s | 0.8°C | 23.3% | 0hPa | 0V | 00:00:00 | 00:00:00 | 00:00:00 | |
| LZ4TU-5 | 2026-09-02 06:37:11 | 44.25393 | 23.77080 | 81° | 27km/h | 3880m | -4.0m/s | 0.5°C | 24.7% | 0hPa | 0V | 00:00:00 | 00:00:00 | 00:00:00 | |
| LZ4TU-5 | 2026-09-02 06:37:07 | 44.25399 | 23.77039 | 106° | 44km/h | 3893m | -6.7m/s | 0.4°C | 25.6% | 0hPa | 0V | 00:00:00 | 00:00:00 | 00:00:00 | |
| LZ4TU-5 | 2026-09-02 06:37:02 | 44.25405 | 23.76990 | 116° | 49km/h | 3918m | -6.5m/s | 0.2°C | 27.4% | 0hPa | 0V | 00:00:00 | 00:00:00 | 00:00:00 | |
| LZ4TU-5 | 2026-09-02 06:36:57 | 44.25420 | 23.76942 | 107° | 42km/h | 3943m | -7.9m/s | -0.0°C | 28.6% | 0hPa | 0V | 00:00:00 | 00:00:00 | 00:00:00 | |
| LZ4TU-5 | 2026-09-02 06:36:52 | 44.25435 | 23.76882 | 100° | 38km/h | 3965m | -6.9m/s | -0.2°C | 29.3% | 0hPa | 0V | 00:00:00 | 00:00:00 | 00:00:00 | |
| LZ4TU-5 | 2026-09-02 06:36:48 | 44.25447 | 23.76837 | 132° | 40km/h | 3984m | -6.1m/s | -0.4°C | 32.0% | 0hPa | 0V | 00:00:00 | 00:00:00 | 00:00:00 | |
| LZ4TU-5 | 2026-09-02 06:36:43 | 44.25458 | 23.76782 | 106° | 44km/h | 4004m | -3.9m/s | -0.5°C | 31.3% | 0hPa | 0V | 00:00:00 | 00:00:00 | 00:00:00 | |
| LZ4TU-5 | 2026-09-02 06:36:39 | 44.25456 | 23.76736 | 132° | 31km/h | 4018m | -3.7m/s | -0.7°C | 29.3% | 0hPa | 0V | 00:00:00 | 00:00:00 | 00:00:00 | |
| LZ4TU-5 | 2026-09-02 06:36:34 | 44.25466 | 23.76684 | 121° | 37km/h | 4038m | -3.9m/s | -0.8°C | 31.1% | 0hPa | 0V | 00:00:00 | 00:00:00 | 00:00:00 | |
| LZ4TU-5 | 2026-09-02 06:36:29 | 44.25478 | 23.76627 | 119° | 46km/h | 4059m | -3.6m/s | -0.7°C | 24.7% | 0hPa | 0V | 00:00:00 | 00:00:00 | 00:00:00 | |
| LZ4TU-5 | 2026-09-02 06:36:25 | 44.25485 | 23.76578 | 105° | 29km/h | 4070m | -4.1m/s | -0.8°C | 22.7% | 0hPa | 0V | 00:00:00 | 00:00:00 | 00:00:00 | |
| LZ4TU-5 | 2026-09-02 06:36:21 | 44.25500 | 23.76531 | 90° | 38km/h | 4084m | -5.0m/s | -0.9°C | 22.4% | 0hPa | 0V | 00:00:00 | 00:00:00 | 00:00:00 | |
| LZ4TU-5 | 2026-09-02 06:36:17 | 44.25510 | 23.76480 | 106° | 47km/h | 4099m | -4.3m/s | -0.8°C | 19.3% | 0hPa | 0V | 00:00:00 | 00:00:00 | 00:00:00 | |
| LZ4TU-5 | 2026-09-02 06:36:12 | 44.25518 | 23.76416 | 100° | 49km/h | 4116m | -4.9m/s | -0.8°C | 17.2% | 0hPa | 0V | 00:00:00 | 00:00:00 | 00:00:00 | |
| LZ4TU-5 | 2026-09-02 06:36:07 | 44.25528 | 23.76359 | 99° | 37km/h | 4134m | -6.2m/s | -0.9°C | 19.7% | 0hPa | 0V | 00:00:00 | 00:00:00 | 00:00:00 | |
| LZ4TU-5 | 2026-09-02 06:36:03 | 44.25539 | 23.76314 | 125° | 44km/h | 4155m | -6.8m/s | -1.0°C | 24.6% | 0hPa | 0V | 00:00:00 | 00:00:00 | 00:00:00 | |
| LZ4TU-5 | 2026-09-02 06:35:58 | 44.25558 | 23.76254 | 117° | 58km/h | 4179m | -6.3m/s | -0.8°C | 19.3% | 0hPa | 0V | 00:00:00 | 00:00:00 | 00:00:00 | |
| LZ4TU-5 | 2026-09-02 06:35:54 | 44.25571 | 23.76200 | 126° | 40km/h | 4197m | -4.9m/s | -0.7°C | 17.2% | 0hPa | 0V | 00:00:00 | 00:00:00 | 00:00:00 | |
| LZ4TU-5 | 2026-09-02 06:35:49 | 44.25587 | 23.76131 | 130° | 38km/h | 4219m | -5.5m/s | -0.7°C | 16.1% | 0hPa | 0V | 00:00:00 | 00:00:00 | 00:00:00 | |
| LZ4TU-5 | 2026-09-02 06:35:45 | 44.25598 | 23.76076 | 83° | 33km/h | 4235m | -4.1m/s | -0.5°C | 12.5% | 0hPa | 0V | 00:00:00 | 00:00:00 | 00:00:00 | |
| LZ4TU-5 | 2026-09-02 06:35:40 | 44.25611 | 23.76007 | 92° | 35km/h | 4256m | -4.2m/s | -0.3°C | 10.1% | 0hPa | 0V | 00:00:00 | 00:00:00 | 00:00:00 | |
| LZ4TU-5 | 2026-09-02 06:35:35 | 44.25629 | 23.75948 | 80° | 40km/h | 4272m | -5.4m/s | -0.3°C | 0% | 0hPa | 0V | 00:00:00 | 00:00:00 | 00:00:00 | |
| LZ4TU-5 | 2026-09-02 06:35:29 | 44.25642 | 23.75868 | 111° | 53km/h | 4299m | -7.2m/s | -0.3°C | 9.8% | 0hPa | 0V | 00:00:00 | 00:00:00 | 00:00:00 | |
| LZ4TU-5 | 2026-09-02 06:35:25 | 44.25653 | 23.75815 | 129° | 33km/h | 4319m | -4.2m/s | -0.3°C | 9.8% | 0hPa | 0V | 00:00:00 | 00:00:00 | 00:00:00 | |
| LZ4TU-5 | 2026-09-02 06:35:19 | 44.25678 | 23.75725 | 120° | 44km/h | 4340m | -3.5m/s | -0.5°C | 10.7% | 0hPa | 0V | 00:00:00 | 00:00:00 | 00:00:00 | |
| LZ4TU-5 | 2026-09-02 06:35:14 | 44.25699 | 23.75650 | 90° | 46km/h | 4357m | -6.1m/s | -0.7°C | 11.0% | 0hPa | 0V | 00:00:00 | 00:00:00 | 00:00:00 | |
| LZ4TU-5 | 2026-09-02 06:35:08 | 44.25713 | 23.75557 | 135° | 47km/h | 4385m | -8.7m/s | -0.9°C | 11.0% | 0hPa | 0V | 00:00:00 | 00:00:00 | 00:00:00 | |
| LZ4TU-5 | 2026-09-02 06:35:03 | 44.25729 | 23.75482 | 117° | 53km/h | 4410m | -7.2m/s | -1.1°C | 11.1% | 0hPa | 0V | 00:00:00 | 00:00:00 | 00:00:00 | |
| LZ4TU-5 | 2026-09-02 06:34:58 | 44.25740 | 23.75406 | 111° | 44km/h | 4436m | -6.0m/s | -1.3°C | 11.1% | 0hPa | 0V | 00:00:00 | 00:00:00 | 00:00:00 | |
| LZ4TU-5 | 2026-09-02 06:34:53 | 44.25754 | 23.75347 | 93° | 42km/h | 4462m | -6.8m/s | -1.5°C | 11.2% | 0hPa | 0V | 00:00:00 | 00:00:00 | 00:00:00 | |
| LZ4TU-5 | 2026-09-02 06:34:49 | 44.25766 | 23.75296 | 109° | 55km/h | 4486m | -7.8m/s | -1.6°C | 11.3% | 0hPa | 0V | 00:00:00 | 00:00:00 | 00:00:00 | |
| LZ4TU-5 | 2026-09-02 06:34:44 | 44.25782 | 23.75224 | 107° | 58km/h | 4516m | -5.1m/s | -1.8°C | 11.3% | 0hPa | 0V | 00:00:00 | 00:00:00 | 00:00:00 | |
| LZ4TU-5 | 2026-09-02 06:34:39 | 44.25801 | 23.75147 | 100° | 57km/h | 4538m | -3.8m/s | -2.0°C | 11.4% | 0hPa | 0V | 00:00:00 | 00:00:00 | 00:00:00 | |
| LZ4TU-5 | 2026-09-02 06:34:35 | 44.25812 | 23.75083 | 124° | 49km/h | 4553m | -2.4m/s | -2.3°C | 11.5% | 0hPa | 0V | 00:00:00 | 00:00:00 | 00:00:00 | |
| LZ4TU-5 | 2026-09-02 06:34:30 | 44.25825 | 23.75009 | 120° | 47km/h | 4566m | -5.5m/s | -2.4°C | 11.5% | 0hPa | 0V | 00:00:00 | 00:00:00 | 00:00:00 | |
| LZ4TU-5 | 2026-09-02 06:34:25 | 44.25831 | 23.74942 | 92° | 47km/h | 4583m | -4.3m/s | -2.5°C | 11.3% | 0hPa | 0V | 00:00:00 | 00:00:00 | 00:00:00 | |
| LZ4TU-5 | 2026-09-02 06:34:20 | 44.25852 | 23.74871 | 92° | 42km/h | 4601m | -4.3m/s | -2.7°C | 11.1% | 0hPa | 0V | 00:00:00 | 00:00:00 | 00:00:00 | |
| LZ4TU-5 | 2026-09-02 06:34:15 | 44.25870 | 23.74795 | 85° | 46km/h | 4621m | -5.0m/s | -2.8°C | 11.1% | 0hPa | 0V | 00:00:00 | 00:00:00 | 00:00:00 | |
| LZ4TU-5 | 2026-09-02 06:34:11 | 44.25877 | 23.74729 | 95° | 49km/h | 4641m | -6.1m/s | -3.0°C | 10.9% | 0hPa | 0V | 00:00:00 | 00:00:00 | 00:00:00 | |
| LZ4TU-5 | 2026-09-02 06:34:06 | 44.25892 | 23.74661 | 97° | 55km/h | 4660m | -4.1m/s | -3.0°C | 10.7% | 0hPa | 0V | 00:00:00 | 00:00:00 | 00:00:00 | |
| LZ4TU-5 | 2026-09-02 06:34:01 | 44.25914 | 23.74590 | 96° | 38km/h | 4682m | -7.5m/s | -3.3°C | 10.7% | 0hPa | 0V | 00:00:00 | 00:00:00 | 00:00:00 | |
| LZ4TU-5 | 2026-09-02 06:33:57 | 44.25927 | 23.74529 | 101° | 57km/h | 4702m | -4.6m/s | -3.4°C | 10.7% | 0hPa | 0V | 00:00:00 | 00:00:00 | 00:00:00 | |
| LZ4TU-5 | 2026-09-02 06:33:52 | 44.25947 | 23.74450 | 98° | 46km/h | 4719m | -3.9m/s | -3.6°C | 10.7% | 0hPa | 0V | 00:00:00 | 00:00:00 | 00:00:00 | |
| LZ4TU-5 | 2026-09-02 06:33:47 | 44.25960 | 23.74373 | 78° | 46km/h | 4733m | -4.5m/s | -3.8°C | 10.6% | 0hPa | 0V | 00:00:00 | 00:00:00 | 00:00:00 | |
| LZ4TU-5 | 2026-09-02 06:33:42 | 44.25975 | 23.74301 | 80° | 31km/h | 4754m | -6.8m/s | -3.9°C | 10.6% | 0hPa | 0V | 00:00:00 | 00:00:00 | 00:00:00 | |
| LZ4TU-5 | 2026-09-02 06:33:38 | 44.25982 | 23.74236 | 88° | 49km/h | 4778m | -9.2m/s | -4.0°C | 10.3% | 0hPa | 0V | 00:00:00 | 00:00:00 | 00:00:00 | |
| LZ4TU-5 | 2026-09-02 06:33:33 | 44.26006 | 23.74167 | 88° | 46km/h | 4805m | -7.3m/s | -4.2°C | 10.1% | 0hPa | 0V | 00:00:00 | 00:00:00 | 00:00:00 | |
| LZ4TU-5 | 2026-09-02 06:33:28 | 44.26030 | 23.74095 | 115° | 35km/h | 4827m | -5.6m/s | -4.4°C | 9.9% | 0hPa | 0V | 00:00:00 | 00:00:00 | 00:00:00 | |
| LZ4TU-5 | 2026-09-02 06:33:24 | 44.26052 | 23.74035 | 111° | 46km/h | 4841m | -4.1m/s | -4.5°C | 9.8% | 0hPa | 0V | 00:00:00 | 00:00:00 | 00:00:00 | |
| LZ4TU-5 | 2026-09-02 06:33:20 | 44.26070 | 23.73970 | 129° | 55km/h | 4855m | -6.5m/s | -4.5°C | 8.4% | 0hPa | 0V | 00:00:00 | 00:00:00 | 00:00:00 | |
| LZ4TU-5 | 2026-09-02 06:33:15 | 44.26084 | 23.73886 | 104° | 62km/h | 4876m | -5.0m/s | -4.5°C | 7.0% | 0hPa | 0V | 00:00:00 | 00:00:00 | 00:00:00 | |
| LZ4TU-5 | 2026-09-02 06:33:10 | 44.26097 | 23.73806 | 108° | 55km/h | 4892m | -8.5m/s | -4.5°C | 6.2% | 0hPa | 0V | 00:00:00 | 00:00:00 | 00:00:00 | |
| LZ4TU-5 | 2026-09-02 06:31:45 | 44.26334 | 23.72186 | 98° | 47km/h | 5257m | -4.2m/s | -6.1°C | 5.7% | 0hPa | 0V | 00:00:00 | 00:00:00 | 00:00:00 | |
| LZ4TU-5 | 2026-09-02 06:31:41 | 44.26353 | 23.72108 | 106° | 75km/h | 5266m | -3.3m/s | -6.2°C | 6.0% | 0hPa | 0V | 00:00:00 | 00:00:00 | 00:00:00 | |
| LZ4TU-5 | 2026-09-02 06:31:37 | 44.26367 | 23.72022 | 129° | 64km/h | 5286m | -8.5m/s | -6.3°C | 6.1% | 0hPa | 0V | 00:00:00 | 00:00:00 | 00:00:00 | |
| LZ4TU-5 | 2026-09-02 06:31:32 | 44.26381 | 23.71912 | 104° | 66km/h | 5319m | -7.3m/s | -6.6°C | 6.3% | 0hPa | 0V | 00:00:00 | 00:00:00 | 00:00:00 | |
| LZ4TU-5 | 2026-09-02 06:31:27 | 44.26393 | 23.71820 | 88° | 57km/h | 5346m | -5.1m/s | -6.8°C | 6.9% | 0hPa | 0V | 00:00:00 | 00:00:00 | 00:00:00 | |
| LZ4TU-5 | 2026-09-02 06:31:23 | 44.26409 | 23.71740 | 104° | 75km/h | 5363m | -3.8m/s | -6.9°C | 0% | 0hPa | 0V | 00:00:00 | 00:00:00 | 00:00:00 | |
| LZ4TU-5 | 2026-09-02 06:31:18 | 44.26432 | 23.71635 | 102° | 62km/h | 5387m | -4.3m/s | -7.1°C | 14.9% | 0hPa | 0V | 00:00:00 | 00:00:00 | 00:00:00 | |
| LZ4TU-5 | 2026-09-02 06:31:14 | 44.26444 | 23.71549 | 119° | 68km/h | 5403m | -4.3m/s | -7.2°C | 15.1% | 0hPa | 0V | 00:00:00 | 00:00:00 | 00:00:00 | |
| LZ4TU-5 | 2026-09-02 06:29:41 | 44.26696 | 23.69599 | 125° | 57km/h | 5776m | -10.7m/s | -10.3°C | 21.4% | 0hPa | 0V | 00:00:00 | 00:00:00 | 00:00:00 | |
| LZ4TU-5 | 2026-09-02 06:29:37 | 44.26701 | 23.69514 | 84° | 55km/h | 5799m | -6.3m/s | -10.5°C | 21.7% | 0hPa | 0V | 00:00:00 | 00:00:00 | 00:00:00 | |
| LZ4TU-5 | 2026-09-02 06:29:29 | 44.26724 | 23.69344 | 110° | 69km/h | 5836m | -4.5m/s | -10.8°C | 0% | 0hPa | 0V | 00:00:00 | 00:00:00 | 00:00:00 | |
| LZ4TU-5 | 2026-09-02 06:28:03 | 44.26895 | 23.67498 | 97° | 60km/h | 6191m | -5.0m/s | -12.5°C | 22.0% | 0hPa | 0V | 00:00:00 | 00:00:00 | 00:00:00 | |
| LZ4TU-5 | 2026-09-02 06:27:58 | 44.26898 | 23.67399 | 96° | 64km/h | 6221m | -1.0m/s | -12.6°C | 22.7% | 0hPa | 0V | 00:00:00 | 00:00:00 | 00:00:00 | |
| LZ4TU-5 | 2026-09-02 06:27:52 | 44.26923 | 23.67269 | 109° | 84km/h | 6229m | -3.4m/s | -12.7°C | 22.2% | 0hPa | 0V | 00:00:00 | 00:00:00 | 00:00:00 | |
| LZ4TU-5 | 2026-09-02 06:27:47 | 44.26936 | 23.67153 | 77° | 71km/h | 6247m | -8.0m/s | -12.7°C | 72.3% | 0hPa | 0V | 00:00:00 | 00:00:00 | 00:00:00 | |
| LZ4TU-5 | 2026-09-02 06:27:42 | 44.26943 | 23.67044 | 111° | 55km/h | 6282m | -6.8m/s | -12.7°C | 19.0% | 0hPa | 0V | 00:00:00 | 00:00:00 | 00:00:00 | |
| LZ4TU-5 | 2026-09-02 06:27:37 | 44.26950 | 23.66938 | 92° | 60km/h | 6315m | -5.6m/s | -12.9°C | 19.3% | 0hPa | 0V | 00:00:00 | 00:00:00 | 00:00:00 | |
| LZ4TU-5 | 2026-09-02 06:26:13 | 44.27061 | 23.65113 | 104° | 47km/h | 6686m | -4.0m/s | -16.0°C | 30.5% | 0hPa | 0V | 00:00:00 | 00:00:00 | 00:00:00 | |
| LZ4TU-5 | 2026-09-02 06:26:09 | 44.27064 | 23.65026 | 104° | 62km/h | 6695m | -2.9m/s | -16.1°C | 28.9% | 0hPa | 0V | 00:00:00 | 00:00:00 | 00:00:00 | |
| LZ4TU-5 | 2026-09-02 06:24:43 | 44.27198 | 23.63149 | 81° | 68km/h | 7023m | -5.6m/s | -18.5°C | 31.6% | 0hPa | 0V | 00:00:00 | 00:00:00 | 00:00:00 | |
| LZ4TU-5 | 2026-09-02 06:24:38 | 44.27200 | 23.63038 | 80° | 57km/h | 7049m | -5.7m/s | -18.7°C | 30.9% | 0hPa | 0V | 00:00:00 | 00:00:00 | 00:00:00 | |
| LZ4TU-5 | 2026-09-02 06:23:17 | 44.27314 | 23.61283 | 90° | 64km/h | 7383m | -3.3m/s | -21.2°C | 29.8% | 0hPa | 0V | 00:00:00 | 00:00:00 | 00:00:00 | |
| LZ4TU-5 | 2026-09-02 06:23:13 | 44.27320 | 23.61190 | 78° | 69km/h | 7393m | -4.0m/s | -21.4°C | 31.4% | 0hPa | 0V | 00:00:00 | 00:00:00 | 00:00:00 | |
| LZ4TU-5 | 2026-09-02 06:23:09 | 44.27326 | 23.61098 | 76° | 71km/h | 7406m | -6.1m/s | -21.5°C | 30.9% | 0hPa | 0V | 00:00:00 | 00:00:00 | 00:00:00 | |
| LZ4TU-5 | 2026-09-02 06:23:04 | 44.27334 | 23.60982 | 124° | 68km/h | 7433m | -6.6m/s | -21.6°C | 30.4% | 0hPa | 0V | 00:00:00 | 00:00:00 | 00:00:00 | |
| LZ4TU-5 | 2026-09-02 06:22:59 | 44.27345 | 23.60864 | 101° | 89km/h | 7460m | -2.7m/s | -21.7°C | 0% | 0hPa | 0V | 00:00:00 | 00:00:00 | 00:00:00 | |
| LZ4TU-5 | 2026-09-02 06:21:41 | 44.27551 | 23.58991 | 113° | 82km/h | 7771m | -6.2m/s | -23.9°C | 15.4% | 0hPa | 0V | 00:00:00 | 00:00:00 | 00:00:00 | |
| LZ4TU-5 | 2026-09-02 06:21:36 | 44.27562 | 23.58852 | 87° | 89km/h | 7802m | -4.4m/s | -24.0°C | 15.7% | 0hPa | 0V | 00:00:00 | 00:00:00 | 00:00:00 | |
| LZ4TU-5 | 2026-09-02 06:20:16 | 44.27728 | 23.56674 | 83° | 80km/h | 8145m | -9.6m/s | -26.2°C | 12.8% | 0hPa | 0V | 00:00:00 | 00:00:00 | 00:00:00 | |
| LZ4TU-5 | 2026-09-02 06:20:12 | 44.27735 | 23.56571 | 92° | 97km/h | 8167m | -3.8m/s | -26.4°C | 12.9% | 0hPa | 0V | 00:00:00 | 00:00:00 | 00:00:00 | |
| LZ4TU-5 | 2026-09-02 06:20:07 | 44.27738 | 23.56439 | 117° | 75km/h | 8192m | -3.2m/s | -26.5°C | 13.1% | 0hPa | 0V | 00:00:00 | 00:00:00 | 00:00:00 | |
| LZ4TU-5 | 2026-09-02 06:18:47 | 44.27836 | 23.54338 | 114° | 71km/h | 8538m | -2.2m/s | -29.6°C | 15.2% | 0hPa | 0V | 00:00:00 | 00:00:00 | 00:00:00 | |
| LZ4TU-5 | 2026-09-02 06:18:42 | 44.27840 | 23.54211 | 89° | 95km/h | 8562m | -4.0m/s | -29.8°C | 15.2% | 0hPa | 0V | 00:00:00 | 00:00:00 | 00:00:00 | |
| LZ4TU-5 | 2026-09-02 06:18:36 | 44.27840 | 23.54051 | 91° | 100km/h | 8597m | -3.3m/s | -30.0°C | 0% | 0hPa | 0V | 00:00:00 | 00:00:00 | 00:00:00 | |
| LZ4TU-5 | 2026-09-02 06:17:15 | 44.27867 | 23.51888 | 102° | 95km/h | 8955m | -1.6m/s | -32.6°C | 11.4% | 0hPa | 0V | 00:00:00 | 00:00:00 | 00:00:00 | |
| LZ4TU-5 | 2026-09-02 06:17:11 | 44.27870 | 23.51773 | 104° | 80km/h | 8965m | -3.5m/s | -32.7°C | 11.1% | 0hPa | 0V | 00:00:00 | 00:00:00 | 00:00:00 | |
| LZ4TU-5 | 2026-09-02 06:17:06 | 44.27869 | 23.51635 | 73° | 86km/h | 8983m | -6.0m/s | -32.8°C | 10.6% | 0hPa | 0V | 00:00:00 | 00:00:00 | 00:00:00 | |
| LZ4TU-5 | 2026-09-02 06:15:38 | 44.27747 | 23.49106 | 84° | 84km/h | 9380m | -6.2m/s | -35.5°C | 13.0% | 0hPa | 0V | 00:00:00 | 00:00:00 | 00:00:00 | |
| LZ4TU-5 | 2026-09-02 06:15:33 | 44.27745 | 23.48962 | 96° | 69km/h | 9407m | -5.6m/s | -35.7°C | 12.8% | 0hPa | 0V | 00:00:00 | 00:00:00 | 00:00:00 | |
| LZ4TU-5 | 2026-09-02 06:14:03 | 44.27594 | 23.46225 | 105° | 91km/h | 9790m | -3.4m/s | -38.7°C | 15.1% | 0hPa | 0V | 00:00:00 | 00:00:00 | 00:00:00 | |
| LZ4TU-5 | 2026-09-02 06:13:59 | 44.27597 | 23.46101 | 86° | 89km/h | 9815m | -3.5m/s | -38.9°C | 15.4% | 0hPa | 0V | 00:00:00 | 00:00:00 | 00:00:00 | |
| LZ4TU-5 | 2026-09-02 06:13:54 | 44.27588 | 23.45939 | 84° | 93km/h | 9831m | -4.2m/s | -39.1°C | 15.8% | 0hPa | 0V | 00:00:00 | 00:00:00 | 00:00:00 | |
| LZ4TU-5 | 2026-09-02 06:12:35 | 44.27517 | 23.43403 | 93° | 104km/h | 10178m | -11.9m/s | -42.2°C | 20.1% | 0hPa | 0V | 00:00:00 | 00:00:00 | 00:00:00 | |
| LZ4TU-5 | 2026-09-02 06:12:30 | 44.27514 | 23.43232 | 88° | 97km/h | 10221m | -4.8m/s | -42.3°C | 20.2% | 0hPa | 0V | 00:00:00 | 00:00:00 | 00:00:00 | |
| LZ4TU-5 | 2026-09-02 06:11:06 | 44.27383 | 23.40417 | 82° | 111km/h | 10578m | -4.7m/s | -44.2°C | 14.3% | 0hPa | 0V | 00:00:00 | 00:00:00 | 00:00:00 | |
| LZ4TU-5 | 2026-09-02 06:11:01 | 44.27371 | 23.40255 | 87° | 86km/h | 10600m | -6.3m/s | -44.3°C | 14.6% | 0hPa | 0V | 00:00:00 | 00:00:00 | 00:00:00 | |
| LZ4TU-5 | 2026-09-02 06:09:35 | 44.27071 | 23.37327 | 81° | 104km/h | 10984m | -5.2m/s | -46.7°C | 15.1% | 0hPa | 0V | 00:00:00 | 00:00:00 | 00:00:00 | |
| LZ4TU-5 | 2026-09-02 06:09:30 | 44.27053 | 23.37166 | 90° | 99km/h | 11005m | -6.8m/s | -46.9°C | 15.2% | 0hPa | 0V | 00:00:00 | 00:00:00 | 00:00:00 | |
| LZ4TU-5 | 2026-09-02 06:09:24 | 44.27030 | 23.36969 | 84° | 75km/h | 11035m | -6.2m/s | -47.2°C | 15.3% | 0hPa | 0V | 00:00:00 | 00:00:00 | 00:00:00 | |
| LZ4TU-5 | 2026-09-02 06:08:03 | 44.26606 | 23.34265 | 80° | 111km/h | 11426m | -6.6m/s | -49.9°C | 15.2% | 0hPa | 0V | 00:00:00 | 00:00:00 | 00:00:00 | |
| LZ4TU-5 | 2026-09-02 06:07:59 | 44.26587 | 23.34131 | 78° | 117km/h | 11453m | -4.4m/s | -50.0°C | 15.1% | 0hPa | 0V | 00:00:00 | 00:00:00 | 00:00:00 | |
| LZ4TU-5 | 2026-09-02 06:07:53 | 44.26558 | 23.33914 | 90° | 95km/h | 11474m | -0.9m/s | -50.1°C | 0% | 0hPa | 0V | 00:00:00 | 00:00:00 | 00:00:00 | |
| LZ4TU-5 | 2026-09-02 06:06:32 | 44.26183 | 23.30896 | 76° | 104km/h | 11883m | -5.0m/s | -51.7°C | 14.4% | 0hPa | 0V | 00:00:00 | 00:00:00 | 00:00:00 | |
| LZ4TU-5 | 2026-09-02 06:06:28 | 44.26166 | 23.30745 | 84° | 115km/h | 11904m | -3.9m/s | -51.7°C | 14.4% | 0hPa | 0V | 00:00:00 | 00:00:00 | 00:00:00 | |
| LZ4TU-5 | 2026-09-02 06:05:04 | 44.25698 | 23.27578 | 79° | 117km/h | 12286m | -4.9m/s | -54.2°C | 14.1% | 0hPa | 0V | 00:00:00 | 00:00:00 | 00:00:00 | |
| LZ4TU-5 | 2026-09-02 06:04:59 | 44.25661 | 23.27379 | 82° | 120km/h | 12305m | -6.8m/s | -54.3°C | 13.8% | 0hPa | 0V | 00:00:00 | 00:00:00 | 00:00:00 | |
| LZ4TU-5 | 2026-09-02 06:03:38 | 44.25158 | 23.24212 | 70° | 110km/h | 12668m | -2.9m/s | -55.7°C | 13.9% | 0hPa | 0V | 00:00:00 | 00:00:00 | 00:00:00 | |
| LZ4TU-5 | 2026-09-02 06:03:34 | 44.25120 | 23.24028 | 75° | 102km/h | 12693m | -4.8m/s | -55.7°C | 13.7% | 0hPa | 0V | 00:00:00 | 00:00:00 | 00:00:00 | |
| LZ4TU-5 | 2026-09-02 06:02:02 | 44.24575 | 23.20590 | 81° | 126km/h | 13081m | -4.0m/s | -57.0°C | 9.8% | 0hPa | 0V | 00:00:00 | 00:00:00 | 00:00:00 | |
| LZ4TU-5 | 2026-09-02 06:01:57 | 44.24549 | 23.20395 | 85° | 124km/h | 13096m | -4.2m/s | -57.2°C | 9.7% | 0hPa | 0V | 00:00:00 | 00:00:00 | 00:00:00 | |
| LZ4TU-5 | 2026-09-02 06:01:53 | 44.24533 | 23.20243 | 76° | 104km/h | 13107m | -3.2m/s | -57.2°C | 9.5% | 0hPa | 0V | 00:00:00 | 00:00:00 | 00:00:00 | |
| LZ4TU-5 | 2026-09-02 06:01:48 | 44.24514 | 23.20051 | 80° | 113km/h | 13124m | -3.5m/s | -57.1°C | 0% | 0hPa | 0V | 00:00:00 | 00:00:00 | 00:00:00 | |
| LZ4TU-5 | 2026-09-02 06:00:29 | 44.24007 | 23.17052 | 68° | 104km/h | 13494m | -4.0m/s | -57.8°C | 6.0% | 0hPa | 0V | 00:00:00 | 00:00:00 | 00:00:00 | |
| LZ4TU-5 | 2026-09-02 06:00:25 | 44.23984 | 23.16914 | 89° | 100km/h | 13508m | -4.9m/s | -58.0°C | 5.9% | 0hPa | 0V | 00:00:00 | 00:00:00 | 00:00:00 | |
| LZ4TU-5 | 2026-09-02 06:00:19 | 44.23948 | 23.16697 | 81° | 122km/h | 13534m | -4.9m/s | -58.0°C | 5.6% | 0hPa | 0V | 00:00:00 | 00:00:00 | 00:00:00 | |
| LZ4TU-5 | 2026-09-02 05:59:00 | 44.23613 | 23.13917 | 84° | 93km/h | 13948m | -11.9m/s | -57.8°C | 2.6% | 0hPa | 0V | 00:00:00 | 00:00:00 | 00:00:00 | |
| LZ4TU-5 | 2026-09-02 05:58:56 | 44.23597 | 23.13770 | 80° | 108km/h | 13973m | -7.0m/s | -57.8°C | 2.4% | 0hPa | 0V | 00:00:00 | 00:00:00 | 00:00:00 | |
| LZ4TU-5 | 2026-09-02 05:57:36 | 44.23358 | 23.11130 | 89° | 75km/h | 14339m | -8.2m/s | -57.3°C | 0.3% | 0hPa | 0V | 00:00:00 | 00:00:00 | 00:00:00 | |
| LZ4TU-5 | 2026-09-02 05:57:31 | 44.23340 | 23.10972 | 82° | 86km/h | 14371m | -2.9m/s | -57.2°C | 0% | 0hPa | 0V | 00:00:00 | 00:00:00 | 00:00:00 | |
| LZ4TU-5 | 2026-09-02 05:56:13 | 44.23210 | 23.08710 | 69° | 60km/h | 14735m | -4.4m/s | -56.2°C | 0.3% | 0hPa | 0V | 00:00:00 | 00:00:00 | 00:00:00 | |
| LZ4TU-5 | 2026-09-02 05:56:08 | 44.23194 | 23.08578 | 83° | 95km/h | 14755m | -6.6m/s | -56.1°C | 0.3% | 0hPa | 0V | 00:00:00 | 00:00:00 | 00:00:00 | |
| LZ4TU-5 | 2026-09-02 05:56:04 | 44.23187 | 23.08474 | 80° | 78km/h | 14782m | -5.0m/s | -56.0°C | 0.3% | 0hPa | 0V | 00:00:00 | 00:00:00 | 00:00:00 | |
| LZ4TU-5 | 2026-09-02 05:56:00 | 44.23178 | 23.08368 | 95° | 55km/h | 14799m | -4.7m/s | -56.2°C | 0.4% | 0hPa | 0V | 00:00:00 | 00:00:00 | 00:00:00 | |
| LZ4TU-5 | 2026-09-02 05:55:54 | 44.23163 | 23.08225 | 83° | 91km/h | 14828m | -6.3m/s | -56.4°C | 0.5% | 0hPa | 0V | 00:00:00 | 00:00:00 | 00:00:00 | |
| LZ4TU-5 | 2026-09-02 05:54:32 | 44.22977 | 23.06189 | 91° | 89km/h | 15025m | 4.2m/s | -56.7°C | 1.3% | 0hPa | 0V | 00:00:00 | 00:00:00 | 00:00:00 | |
| LZ4TU-5 | 2026-09-02 05:54:27 | 44.22958 | 23.06058 | 64° | 75km/h | 14993m | 3.5m/s | -56.6°C | 1.4% | 0hPa | 0V | 00:00:00 | 00:00:00 | 00:00:00 | |
| LZ4TU-5 | 2026-09-02 05:54:23 | 44.22941 | 23.05954 | 76° | 51km/h | 14970m | 5.2m/s | -55.9°C | 1.4% | 0hPa | 0V | 00:00:00 | 00:00:00 | 00:00:00 | |
| LZ4TU-5 | 2026-09-02 05:54:18 | 44.22926 | 23.05821 | 87° | 82km/h | 14935m | 7.0m/s | -56.8°C | 1.9% | 0hPa | 0V | 00:00:00 | 00:00:00 | 00:00:00 | |
| LZ4TU-5 | 2026-09-02 05:54:13 | 44.22914 | 23.05694 | 92° | 58km/h | 14907m | 8.1m/s | -56.6°C | 2.1% | 0hPa | 0V | 00:00:00 | 00:00:00 | 00:00:00 | |
| LZ4TU-5 | 2026-09-02 05:52:55 | 44.22743 | 23.03570 | 87° | 78km/h | 14423m | 4.4m/s | -57.1°C | 5.0% | 0hPa | 0V | 00:00:00 | 00:00:00 | 00:00:00 | |
| LZ4TU-5 | 2026-09-02 05:52:50 | 44.22728 | 23.03422 | 92° | 104km/h | 14391m | 9.1m/s | -57.2°C | 5.1% | 0hPa | 0V | 00:00:00 | 00:00:00 | 00:00:00 | |
| LZ4TU-5 | 2026-09-02 05:51:20 | 44.22410 | 23.00345 | 77° | 88km/h | 13786m | 5.4m/s | -57.4°C | 9.0% | 0hPa | 0V | 00:00:00 | 00:00:00 | 00:00:00 | |
| LZ4TU-5 | 2026-09-02 05:51:16 | 44.22391 | 23.00208 | 87° | 77km/h | 13760m | 3.7m/s | -57.5°C | 9.2% | 0hPa | 0V | 00:00:00 | 00:00:00 | 00:00:00 | |
| LZ4TU-5 | 2026-09-02 05:51:11 | 44.22373 | 23.00035 | 84° | 119km/h | 13728m | 7.8m/s | -57.8°C | 9.6% | 0hPa | 0V | 00:00:00 | 00:00:00 | 00:00:00 | |
| LZ4TU-5 | 2026-09-02 05:51:06 | 44.22356 | 22.99845 | 81° | 106km/h | 13691m | 5.8m/s | -57.9°C | 0% | 0hPa | 0V | 00:00:00 | 00:00:00 | 00:00:00 | |
| LZ4TU-5 | 2026-09-02 05:48:51 | 44.21605 | 22.94590 | 73° | 113km/h | 12814m | 8.4m/s | -56.5°C | 0% | 0hPa | 0V | 00:00:00 | 00:00:00 | 00:00:00 | |
| LZ4TU-5 | 2026-09-02 05:46:53 | 44.20833 | 22.89835 | 85° | 89km/h | 12052m | 4.2m/s | -52.6°C | 15.8% | 0hPa | 0V | 00:00:00 | 00:00:00 | 00:00:00 | |
| LZ4TU-5 | 2026-09-02 05:46:48 | 44.20824 | 22.89643 | 89° | 111km/h | 12012m | 4.8m/s | -52.2°C | 0% | 0hPa | 0V | 00:00:00 | 00:00:00 | 00:00:00 | |
| LZ4TU-5 | 2026-09-02 05:44:53 | 44.20352 | 22.85236 | 96° | 106km/h | 11248m | 4.9m/s | -49.2°C | 18.1% | 0hPa | 0V | 00:00:00 | 00:00:00 | 00:00:00 | |
| LZ4TU-5 | 2026-09-02 05:44:49 | 44.20338 | 22.85090 | 73° | 106km/h | 11224m | 1.5m/s | -49.0°C | 18.2% | 0hPa | 0V | 00:00:00 | 00:00:00 | 00:00:00 | |
| LZ4TU-5 | 2026-09-02 05:44:44 | 44.20325 | 22.84899 | 81° | 120km/h | 11201m | 4.9m/s | -48.8°C | 0% | 0hPa | 0V | 00:00:00 | 00:00:00 | 00:00:00 | |
| LZ4TU-5 | 2026-09-02 05:43:22 | 44.20112 | 22.81945 | 88° | 97km/h | 10631m | 4.1m/s | -45.8°C | 22.7% | 0hPa | 0V | 00:00:00 | 00:00:00 | 00:00:00 | |
| LZ4TU-5 | 2026-09-02 05:43:17 | 44.20108 | 22.81795 | 82° | 108km/h | 10604m | 5.5m/s | -45.5°C | 22.6% | 0hPa | 0V | 00:00:00 | 00:00:00 | 00:00:00 | |
| LZ4TU-5 | 2026-09-02 05:43:13 | 44.20110 | 22.81656 | 83° | 95km/h | 10582m | 3.3m/s | -45.2°C | 22.5% | 0hPa | 0V | 00:00:00 | 00:00:00 | 00:00:00 | |
| LZ4TU-5 | 2026-09-02 05:43:09 | 44.20110 | 22.81535 | 95° | 97km/h | 10552m | 7.6m/s | -45.0°C | 22.5% | 0hPa | 0V | 00:00:00 | 00:00:00 | 00:00:00 | |
| LZ4TU-5 | 2026-09-02 05:41:49 | 44.20010 | 22.78622 | 79° | 95km/h | 10046m | 5.3m/s | -41.0°C | 16.4% | 0hPa | 0V | 00:00:00 | 00:00:00 | 00:00:00 | |
| LZ4TU-5 | 2026-09-02 05:41:44 | 44.20012 | 22.78449 | 98° | 99km/h | 10015m | 5.5m/s | -40.7°C | 16.0% | 0hPa | 0V | 00:00:00 | 00:00:00 | 00:00:00 | |
| LZ4TU-5 | 2026-09-02 05:40:16 | 44.19823 | 22.75625 | 106° | 100km/h | 9436m | 2.8m/s | -36.4°C | 15.8% | 0hPa | 0V | 00:00:00 | 00:00:00 | 00:00:00 | |
| LZ4TU-5 | 2026-09-02 05:40:12 | 44.19821 | 22.75504 | 78° | 100km/h | 9409m | 3.5m/s | -36.2°C | 15.6% | 0hPa | 0V | 00:00:00 | 00:00:00 | 00:00:00 | |
| LZ4TU-5 | 2026-09-02 05:38:54 | 44.19732 | 22.73245 | 91° | 80km/h | 8889m | 9.3m/s | -32.6°C | 17.1% | 0hPa | 0V | 00:00:00 | 00:00:00 | 00:00:00 | |
| LZ4TU-5 | 2026-09-02 05:38:49 | 44.19720 | 22.73119 | 80° | 78km/h | 8852m | 8.9m/s | -32.4°C | 17.5% | 0hPa | 0V | 00:00:00 | 00:00:00 | 00:00:00 | |
| LZ4TU-5 | 2026-09-02 05:37:26 | 44.19717 | 22.70781 | 87° | 100km/h | 8307m | 6.6m/s | -28.1°C | 16.9% | 0hPa | 0V | 00:00:00 | 00:00:00 | 00:00:00 | |
| LZ4TU-5 | 2026-09-02 05:37:21 | 44.19730 | 22.70614 | 100° | 91km/h | 8270m | 9.6m/s | -27.8°C | 17.0% | 0hPa | 0V | 00:00:00 | 00:00:00 | 00:00:00 | |
| LZ4TU-5 | 2026-09-02 05:36:06 | 44.19874 | 22.68420 | 92° | 88km/h | 7778m | 6.8m/s | -24.1°C | 18.8% | 0hPa | 0V | 00:00:00 | 00:00:00 | 00:00:00 | |
| LZ4TU-5 | 2026-09-02 05:36:02 | 44.19875 | 22.68329 | 97° | 62km/h | 7751m | 7.3m/s | -23.9°C | 0% | 0hPa | 0V | 00:00:00 | 00:00:00 | 00:00:00 | |
| LZ4TU-5 | 2026-09-02 05:32:33 | 44.20168 | 22.63558 | 106° | 62km/h | 6462m | 8.0m/s | -15.1°C | 44.8% | 0hPa | 0V | 00:00:00 | 00:00:00 | 00:00:00 | |
| LZ4TU-5 | 2026-09-02 05:32:28 | 44.20175 | 22.63436 | 86° | 55km/h | 6432m | 6.9m/s | -14.8°C | 39.0% | 0hPa | 0V | 00:00:00 | 00:00:00 | 00:00:00 | |
| LZ4TU-5 | 2026-09-02 05:31:27 | 44.20341 | 22.62205 | 91° | 57km/h | 6058m | 8.8m/s | -11.7°C | 17.1% | 0hPa | 0V | 00:00:00 | 00:00:00 | 00:00:00 | |
| LZ4TU-5 | 2026-09-02 05:31:22 | 44.20347 | 22.62111 | 111° | 64km/h | 6034m | 4.8m/s | -11.6°C | 19.2% | 0hPa | 0V | 00:00:00 | 00:00:00 | 00:00:00 | |
| LZ4TU-5 | 2026-09-02 05:30:21 | 44.20440 | 22.60868 | 117° | 58km/h | 5675m | 5.5m/s | -9.2°C | 19.5% | 0hPa | 0V | 00:00:00 | 00:00:00 | 00:00:00 | |
| LZ4TU-5 | 2026-09-02 05:30:16 | 44.20443 | 22.60765 | 86° | 47km/h | 5648m | 6.0m/s | -8.9°C | 19.5% | 0hPa | 0V | 00:00:00 | 00:00:00 | 00:00:00 | |
| LZ4TU-5 | 2026-09-02 05:29:15 | 44.20666 | 22.59720 | 118° | 64km/h | 5289m | 7.3m/s | -5.8°C | 16.6% | 0hPa | 0V | 00:00:00 | 00:00:00 | 00:00:00 | |
| LZ4TU-5 | 2026-09-02 05:29:10 | 44.20681 | 22.59628 | 113° | 33km/h | 5261m | 4.7m/s | -5.6°C | 16.0% | 0hPa | 0V | 00:00:00 | 00:00:00 | 00:00:00 | |
| LZ4TU-5 | 2026-09-02 05:28:08 | 44.20864 | 22.58551 | 107° | 68km/h | 4886m | 6.0m/s | -2.6°C | 5.8% | 0hPa | 0V | 00:00:00 | 00:00:00 | 00:00:00 | |
| LZ4TU-5 | 2026-09-02 05:28:03 | 44.20872 | 22.58460 | 108° | 42km/h | 4859m | 5.5m/s | -2.4°C | 5.5% | 0hPa | 0V | 00:00:00 | 00:00:00 | 00:00:00 | |
| LZ4TU-5 | 2026-09-02 05:26:48 | 44.21056 | 22.57216 | 83° | 55km/h | 4387m | 6.0m/s | 0.1°C | 10.9% | 0hPa | 0V | 00:00:00 | 00:00:00 | 00:00:00 | |
| LZ4TU-5 | 2026-09-02 05:26:43 | 44.21058 | 22.57157 | 121° | 46km/h | 4355m | 6.9m/s | 0.2°C | 10.6% | 0hPa | 0V | 00:00:00 | 00:00:00 | 00:00:00 | |
| LZ4TU-5 | 2026-09-02 05:24:27 | 44.21382 | 22.55405 | 94° | 47km/h | 3526m | 4.7m/s | 2.4°C | 37.2% | 0hPa | 0V | 00:00:00 | 00:00:00 | 00:00:00 | |
| LZ4TU-5 | 2026-09-02 05:24:22 | 44.21390 | 22.55355 | 115° | 33km/h | 3494m | 7.5m/s | 2.4°C | 41.2% | 0hPa | 0V | 00:00:00 | 00:00:00 | 00:00:00 | |
| LZ4TU-5 | 2026-09-02 05:22:38 | 44.21836 | 22.54572 | 148° | 33km/h | 2847m | 7.2m/s | 7.9°C | 21.3% | 0hPa | 0V | 00:00:00 | 00:00:00 | 00:00:00 | |
| LZ4TU-5 | 2026-09-02 05:22:33 | 44.21857 | 22.54540 | 146° | 38km/h | 2816m | 6.4m/s | 8.1°C | 21.5% | 0hPa | 0V | 00:00:00 | 00:00:00 | 00:00:00 | |
| LZ4TU-5 | 2026-09-02 05:21:31 | 44.22047 | 22.54209 | 154° | 31km/h | 2427m | 5.8m/s | 9.4°C | 52.4% | 0hPa | 0V | 00:00:00 | 00:00:00 | 00:00:00 | |
| LZ4TU-5 | 2026-09-02 05:21:26 | 44.22059 | 22.54181 | 218° | 20km/h | 2391m | 7.6m/s | 9.7°C | 0% | 0hPa | 0V | 00:00:00 | 00:00:00 | 00:00:00 | |
| LZ4TU-5 | 2026-09-02 05:20:24 | 44.22322 | 22.53790 | 111° | 13km/h | 1991m | 5.4m/s | 12.8°C | 37.5% | 0hPa | 0V | 00:00:00 | 00:00:00 | 00:00:00 | |
| LZ4TU-5 | 2026-09-02 05:20:20 | 44.22350 | 22.53775 | 154° | 37km/h | 1968m | 6.1m/s | 13.0°C | 37.1% | 0hPa | 0V | 00:00:00 | 00:00:00 | 00:00:00 | |
| LZ4TU-5 | 2026-09-02 05:19:17 | 44.22830 | 22.53594 | 196° | 37km/h | 1600m | 5.9m/s | 15.8°C | 39.2% | 0hPa | 0V | 00:00:00 | 00:00:00 | 00:00:00 | |
| LZ4TU-5 | 2026-09-02 05:19:12 | 44.22859 | 22.53582 | 166° | 38km/h | 1570m | 4.5m/s | 16.2°C | 37.4% | 0hPa | 0V | 00:00:00 | 00:00:00 | 00:00:00 | |
| LZ4TU-5 | 2026-09-02 05:19:08 | 44.22897 | 22.53579 | 158° | 37km/h | 1543m | 5.7m/s | 16.3°C | 38.4% | 0hPa | 0V | 00:00:00 | 00:00:00 | 00:00:00 | |
| LZ4TU-5 | 2026-09-02 05:19:03 | 44.22927 | 22.53563 | 179° | 13km/h | 1510m | 4.9m/s | 15.8°C | 49.9% | 0hPa | 0V | 00:00:00 | 00:00:00 | 00:00:00 |